createdAt,value
2022-12-22T00:00:42.612Z,96913.63
2022-12-22T00:03:09.031Z,96910.47
2022-12-22T00:05:35.542Z,96898.72
2022-12-22T00:08:01.980Z,96891.78
2022-12-22T00:10:28.261Z,96897.09
2022-12-22T00:12:54.569Z,96889.38
2022-12-22T00:15:20.943Z,96881.09
2022-12-22T00:17:47.289Z,96876.59
2022-12-22T00:20:18.289Z,96870.97
2022-12-22T00:22:45.215Z,96863.25
2022-12-22T00:25:15.171Z,96861.63
2022-12-22T00:27:45.520Z,96869.91
2022-12-22T00:30:12.323Z,96864.03
2022-12-22T00:32:38.591Z,96852.88
2022-12-22T00:35:04.834Z,96866.41
2022-12-22T00:37:31.183Z,96846.44
2022-12-22T00:39:57.497Z,96852.81
2022-12-22T00:42:23.891Z,96865.63
2022-12-22T00:44:50.143Z,96858.66
2022-12-22T00:47:16.620Z,96858.13
2022-12-22T00:49:42.926Z,96846.94
2022-12-22T00:52:09.181Z,96845.34
2022-12-22T00:54:35.476Z,96830.69
2022-12-22T00:57:01.911Z,96835.22
2022-12-22T00:59:28.150Z,96832.84
2022-12-22T01:01:54.525Z,96837.34
2022-12-22T01:04:20.824Z,96842.13
2022-12-22T01:06:47.050Z,96840.53
2022-12-22T01:09:13.382Z,96837.31
2022-12-22T01:11:39.647Z,96843.19
2022-12-22T01:14:06.049Z,96833.56
2022-12-22T01:16:32.396Z,96839.72
2022-12-22T01:18:58.787Z,96838.09
2022-12-22T01:21:25.152Z,96833.84
2022-12-22T01:23:51.426Z,96822.66
2022-12-22T01:26:17.650Z,96830.91
2022-12-22T01:28:43.952Z,96830.91
2022-12-22T01:31:10.437Z,96813.59
2022-12-22T01:33:36.793Z,96808.53
2022-12-22T01:36:03.051Z,96810.41
2022-12-22T01:38:29.307Z,96802.66
2022-12-22T01:40:55.734Z,96796.81
2022-12-22T01:43:22.056Z,96802.16
2022-12-22T01:45:48.514Z,96797.88
2022-12-22T01:48:14.863Z,96790.97
2022-12-22T01:50:41.234Z,96791.22
2022-12-22T01:53:07.565Z,96785.34
2022-12-22T01:55:33.831Z,96787.47
2022-12-22T01:58:00.099Z,96795.72
2022-12-22T02:00:27.508Z,96774.44
2022-12-22T02:02:53.930Z,96781.06
2022-12-22T02:05:20.333Z,96782.13
2022-12-22T02:07:46.603Z,96786.66
2022-12-22T02:10:12.907Z,96783.44
2022-12-22T02:12:39.188Z,96770.41
2022-12-22T02:15:05.812Z,96774.91
2022-12-22T02:17:32.055Z,96778.66
2022-12-22T02:19:58.281Z,96764.53
2022-12-22T02:22:24.571Z,96769.09
2022-12-22T02:24:50.841Z,96766.41
2022-12-22T02:27:17.318Z,96763.75
2022-12-22T02:29:43.607Z,96753.13
2022-12-22T02:32:09.883Z,96761.88
2022-12-22T02:34:36.135Z,96761.09
2022-12-22T02:37:02.360Z,96747.81
2022-12-22T02:39:28.729Z,96742.72
2022-12-22T02:41:54.996Z,96746.44
2022-12-22T02:44:21.259Z,96743.00
2022-12-22T02:46:47.555Z,96741.94
2022-12-22T02:49:13.901Z,96744.59
2022-12-22T02:51:40.199Z,96738.75
2022-12-22T02:54:06.449Z,96750.41
2022-12-22T02:56:32.715Z,96740.03
2022-12-22T02:58:59.148Z,96741.13
2022-12-22T03:01:25.688Z,96740.31
2022-12-22T03:03:52.180Z,96728.34
2022-12-22T03:06:18.525Z,96725.91
2022-12-22T03:08:44.800Z,96728.56
2022-12-22T03:11:11.192Z,96720.84
2022-12-22T03:13:37.503Z,96705.97
2022-12-22T03:16:03.823Z,96717.63
2022-12-22T03:18:30.151Z,96694.53
2022-12-22T03:20:56.466Z,96693.97
2022-12-22T03:23:22.846Z,96688.13
2022-12-22T03:25:49.107Z,96692.38
2022-12-22T03:28:15.412Z,96688.91
2022-12-22T03:30:41.793Z,96679.63
2022-12-22T03:33:08.059Z,96679.63
2022-12-22T03:35:34.355Z,96675.34
2022-12-22T03:38:00.635Z,96665.78
2022-12-22T03:40:26.884Z,96666.84
2022-12-22T03:42:53.087Z,96669.50
2022-12-22T03:45:19.410Z,96650.88
2022-12-22T03:47:45.713Z,96656.19
2022-12-22T03:50:12.068Z,96649.31
2022-12-22T03:52:38.334Z,96650.38
2022-12-22T03:55:04.645Z,96644.25
2022-12-22T03:57:30.909Z,96640.25
2022-12-22T03:59:57.164Z,96636.53
2022-12-22T04:02:23.641Z,96641.03
2022-12-22T04:04:50.022Z,96628.84
2022-12-22T04:07:16.315Z,96628.28
2022-12-22T04:09:42.649Z,96621.34
2022-12-22T04:12:08.898Z,96623.22
2022-12-22T04:14:35.192Z,96630.41
2022-12-22T04:17:01.574Z,96628.78
2022-12-22T04:19:28.316Z,96623.47
2022-12-22T04:21:54.594Z,96622.69
2022-12-22T04:24:20.895Z,96625.34
2022-12-22T04:26:47.171Z,96623.72
2022-12-22T04:29:13.414Z,96614.19
2022-12-22T04:31:39.704Z,96616.84
2022-12-22T04:34:05.990Z,96604.59
2022-12-22T04:36:32.228Z,96608.31
2022-12-22T04:38:58.508Z,96608.31
2022-12-22T04:41:24.799Z,96605.13
2022-12-22T04:43:51.094Z,96599.81
2022-12-22T04:46:17.459Z,96599.81
2022-12-22T04:48:43.845Z,96597.94
2022-12-22T04:51:10.082Z,96592.91
2022-12-22T04:53:36.355Z,96592.09
2022-12-22T04:56:02.591Z,96572.69
2022-12-22T04:58:28.866Z,96574.56
2022-12-22T05:00:55.151Z,96564.72
2022-12-22T05:03:21.470Z,96569.25
2022-12-22T05:05:47.822Z,96566.84
2022-12-22T05:08:14.174Z,96565.25
2022-12-22T05:10:40.442Z,96561.78
2022-12-22T05:13:06.697Z,96555.69
2022-12-22T05:15:32.972Z,96554.06
2022-12-22T05:17:59.212Z,96547.19
2022-12-22T05:20:25.624Z,96562.31
2022-12-22T05:22:52.046Z,96566.81
2022-12-22T05:25:18.371Z,96549.56
2022-12-22T05:27:44.711Z,96553.00
2022-12-22T05:30:11.095Z,96551.41
2022-12-22T05:32:37.326Z,96562.03
2022-12-22T05:35:03.564Z,96551.66
2022-12-22T05:37:29.803Z,96554.31
2022-12-22T05:39:56.061Z,96550.09
2022-12-22T05:42:22.308Z,96550.09
2022-12-22T05:44:48.567Z,96553.78
2022-12-22T05:47:14.828Z,96537.03
2022-12-22T05:49:41.065Z,96539.19
2022-12-22T05:52:07.297Z,96543.69
2022-12-22T05:54:33.546Z,96548.19
2022-12-22T05:57:00.212Z,96528.00
2022-12-22T05:59:26.472Z,96527.47
2022-12-22T06:01:52.842Z,96529.31
2022-12-22T06:04:19.148Z,96526.94
2022-12-22T06:06:45.589Z,96518.97
2022-12-22T06:09:12.613Z,96513.66
2022-12-22T06:11:38.881Z,96525.84
2022-12-22T06:14:05.178Z,96520.56
2022-12-22T06:16:31.517Z,96520.56
2022-12-22T06:18:57.906Z,96515.25
2022-12-22T06:21:24.207Z,96514.47
2022-12-22T06:23:50.493Z,96508.34
2022-12-22T06:26:16.742Z,96517.13
2022-12-22T06:28:43.007Z,96513.66
2022-12-22T06:31:09.327Z,96512.06
2022-12-22T06:33:35.631Z,96501.44
2022-12-22T06:36:01.874Z,96500.38
2022-12-22T06:38:28.304Z,96494.25
2022-12-22T06:40:55.028Z,96496.91
2022-12-22T06:43:21.304Z,96490.00
2022-12-22T06:45:47.559Z,96498.78
2022-12-22T06:48:13.837Z,96495.63
2022-12-22T06:50:40.142Z,96499.38
2022-12-22T06:53:06.445Z,96499.19
2022-12-22T06:55:32.773Z,96508.75
2022-12-22T06:57:59.033Z,96507.41
2022-12-22T07:00:25.322Z,96512.19
2022-12-22T07:02:51.659Z,96512.69
2022-12-22T07:05:18.059Z,96510.81
2022-12-22T07:07:44.287Z,96515.34
2022-12-22T07:10:10.503Z,96525.41
2022-12-22T07:12:36.754Z,96515.31
2022-12-22T07:15:03.041Z,96515.81
2022-12-22T07:17:29.342Z,96517.91
2022-12-22T07:19:55.655Z,96508.84
2022-12-22T07:22:29.337Z,96510.16
2022-12-22T07:24:56.407Z,96515.19
2022-12-22T07:27:22.641Z,96501.03
2022-12-22T07:29:48.993Z,96495.66
2022-12-22T07:32:15.249Z,96493.00
2022-12-22T07:34:41.509Z,96491.38
2022-12-22T07:37:08.214Z,96492.13
2022-12-22T07:39:34.485Z,96483.59
2022-12-22T07:42:00.838Z,96483.81
2022-12-22T07:44:27.104Z,96482.50
2022-12-22T07:46:53.406Z,96480.06
2022-12-22T07:49:19.742Z,96476.03
2022-12-22T07:51:45.976Z,96470.94
2022-12-22T07:54:12.338Z,96470.41
2022-12-22T07:56:38.625Z,96468.28
2022-12-22T07:59:04.923Z,96463.44
2022-12-22T08:01:31.390Z,96457.06
2022-12-22T08:03:57.730Z,96459.44
2022-12-22T08:06:24.018Z,96459.72
2022-12-22T08:08:50.281Z,96458.38
2022-12-22T08:11:16.542Z,96450.84
2022-12-22T08:13:42.799Z,96453.25
2022-12-22T08:16:09.215Z,96455.38
2022-12-22T08:18:38.663Z,96451.34
2022-12-22T08:21:04.931Z,96449.47
2022-12-22T08:23:31.293Z,96446.25
2022-12-22T08:25:57.527Z,96435.28
2022-12-22T08:28:23.754Z,96435.03
2022-12-22T08:30:49.999Z,96432.84
2022-12-22T08:33:16.472Z,96433.38
2022-12-22T08:35:42.777Z,96436.84
2022-12-22T08:38:09.071Z,96437.09
2022-12-22T08:40:35.323Z,96440.28
2022-12-22T08:43:01.616Z,96438.91
2022-12-22T08:45:27.906Z,96433.03
2022-12-22T08:47:54.299Z,96440.47
2022-12-22T08:50:20.630Z,96439.09
2022-12-22T08:52:46.883Z,96445.75
2022-12-22T08:55:13.135Z,96446.78
2022-12-22T08:57:39.391Z,96443.84
2022-12-22T09:00:05.730Z,96443.84
2022-12-22T09:02:32.230Z,96444.34
2022-12-22T09:04:58.573Z,96442.19
2022-12-22T09:07:24.791Z,96444.59
2022-12-22T09:09:51.038Z,96446.97
2022-12-22T09:12:17.376Z,96445.09
2022-12-22T09:14:43.655Z,96446.69
2022-12-22T09:17:09.895Z,96452.53
2022-12-22T09:19:36.290Z,96454.91
2022-12-22T09:22:02.540Z,96456.50
2022-12-22T09:24:28.847Z,96458.91
2022-12-22T09:26:55.101Z,96458.63
2022-12-22T09:29:21.349Z,96454.88
2022-12-22T09:31:47.732Z,96458.34
2022-12-22T09:34:18.031Z,96452.19
2022-12-22T09:36:44.591Z,96458.63
2022-12-22T09:39:10.882Z,96450.63
2022-12-22T09:41:37.386Z,96459.91
2022-12-22T09:44:03.685Z,96466.56
2022-12-22T09:46:30.021Z,96469.75
2022-12-22T09:48:56.346Z,96471.34
2022-12-22T09:51:26.777Z,96475.34
2022-12-22T09:53:53.903Z,96476.09
2022-12-22T09:56:20.138Z,96479.31
2022-12-22T09:58:46.418Z,96477.16
2022-12-22T10:01:12.823Z,96468.03
2022-12-22T10:03:39.243Z,96470.47
2022-12-22T10:06:05.553Z,96477.38
2022-12-22T10:08:31.878Z,96479.47
2022-12-22T10:10:58.319Z,96489.09
2022-12-22T10:13:24.584Z,96490.66
2022-12-22T10:15:50.839Z,96483.97
2022-12-22T10:18:17.087Z,96490.66
2022-12-22T10:20:43.359Z,96490.34
2022-12-22T10:23:09.612Z,96487.44
2022-12-22T10:26:17.188Z,96497.03
2022-12-22T10:28:25.419Z,96500.50
2022-12-22T10:30:51.827Z,96501.28
2022-12-22T10:33:18.085Z,96502.06
2022-12-22T10:35:44.376Z,96508.22
2022-12-22T10:38:21.042Z,96517.00
2022-12-22T10:40:49.411Z,96516.75
2022-12-22T10:43:15.689Z,96523.69
2022-12-22T10:45:42.078Z,96526.06
2022-12-22T10:48:08.371Z,96524.19
2022-12-22T10:50:34.749Z,96530.34
2022-12-22T10:53:00.989Z,96528.44
2022-12-22T10:55:27.318Z,96537.25
2022-12-22T10:57:53.553Z,96539.94
2022-12-22T11:00:19.803Z,96539.94
2022-12-22T11:02:46.252Z,96539.66
2022-12-22T11:05:12.657Z,96543.13
2022-12-22T11:07:38.904Z,96537.78
2022-12-22T11:10:05.167Z,96540.16
2022-12-22T11:12:31.452Z,96552.44
2022-12-22T11:14:57.692Z,96562.34
2022-12-22T11:17:24.029Z,96573.03
2022-12-22T11:19:50.298Z,96573.53
2022-12-22T11:22:16.548Z,96575.41
2022-12-22T11:24:43.982Z,96568.69
2022-12-22T11:27:10.287Z,96575.13
2022-12-22T11:29:36.551Z,96580.19
2022-12-22T11:32:02.818Z,96594.34
2022-12-22T11:34:29.067Z,96595.16
2022-12-22T11:36:55.446Z,96587.13
2022-12-22T11:39:21.771Z,96594.06
2022-12-22T11:41:48.072Z,96588.13
2022-12-22T11:44:14.344Z,96598.81
2022-12-22T11:46:40.645Z,96602.31
2022-12-22T11:49:06.982Z,96607.34
2022-12-22T11:51:33.286Z,96603.63
2022-12-22T11:54:02.805Z,96604.13
2022-12-22T11:56:31.719Z,96608.69
2022-12-22T11:58:58.860Z,96612.13
2022-12-22T12:01:26.417Z,96619.59
2022-12-22T12:03:52.917Z,96624.09
2022-12-22T12:06:19.179Z,96632.91
2022-12-22T12:08:45.417Z,96633.44
2022-12-22T12:11:11.767Z,96648.91
2022-12-22T12:13:37.992Z,96655.81
2022-12-22T12:16:04.316Z,96653.97
2022-12-22T12:18:30.612Z,96661.69
2022-12-22T12:20:56.982Z,96655.53
2022-12-22T12:23:23.720Z,96667.31
2022-12-22T12:25:49.961Z,96671.09
2022-12-22T12:28:16.204Z,96674.81
2022-12-22T12:30:42.513Z,96684.69
2022-12-22T12:33:08.766Z,96685.50
2022-12-22T12:35:35.024Z,96691.94
2022-12-22T12:38:01.340Z,96699.16
2022-12-22T12:40:27.824Z,96694.63
2022-12-22T12:42:54.152Z,96693.53
2022-12-22T12:45:20.410Z,96703.16
2022-12-22T12:47:46.727Z,96710.38
2022-12-22T12:50:13.007Z,96709.56
2022-12-22T12:52:39.286Z,96710.94
2022-12-22T12:55:05.556Z,96702.91
2022-12-22T12:57:31.806Z,96708.25
2022-12-22T12:59:58.074Z,96717.34
2022-12-22T13:02:24.495Z,96720.00
2022-12-22T13:04:50.910Z,96716.53
2022-12-22T13:07:17.408Z,96722.97
2022-12-22T13:09:51.681Z,96734.75
2022-12-22T13:12:24.328Z,96731.56
2022-12-22T13:14:51.139Z,96743.03
2022-12-22T13:17:17.492Z,96747.59
2022-12-22T13:19:43.901Z,96748.38
2022-12-22T13:22:10.607Z,96758.28
2022-12-22T13:24:36.832Z,96757.75
2022-12-22T13:27:03.134Z,96758.56
2022-12-22T13:29:29.418Z,96758.56
2022-12-22T13:31:55.747Z,96756.94
2022-12-22T13:34:22.099Z,96766.06
2022-12-22T13:36:48.375Z,96769.53
2022-12-22T13:39:14.839Z,96769.53
2022-12-22T13:41:41.298Z,96774.88
2022-12-22T13:44:07.667Z,96772.47
2022-12-22T13:46:34.094Z,96783.97
2022-12-22T13:49:00.459Z,96774.34
2022-12-22T13:51:26.945Z,96776.22
2022-12-22T13:54:10.332Z,96785.31
2022-12-22T13:56:37.728Z,96794.41
2022-12-22T13:59:04.022Z,96797.34
2022-12-22T14:01:30.465Z,96799.22
2022-12-22T14:04:01.755Z,96807.22
2022-12-22T14:06:29.120Z,96801.38
2022-12-22T14:08:55.429Z,96803.25
2022-12-22T14:11:21.822Z,96813.41
2022-12-22T14:13:48.119Z,96817.97
2022-12-22T14:16:17.619Z,96816.38
2022-12-22T14:18:43.938Z,96826.78
2022-12-22T14:21:10.223Z,96827.59
2022-12-22T14:23:36.512Z,96823.84
2022-12-22T14:26:02.773Z,96820.34
2022-12-22T14:28:29.079Z,96829.69
2022-12-22T14:30:55.528Z,96831.84
2022-12-22T14:33:21.813Z,96841.44
2022-12-22T14:35:48.041Z,96844.13
2022-12-22T14:38:14.388Z,96833.44
2022-12-22T14:40:40.661Z,96843.06
2022-12-22T14:43:07.015Z,96839.56
2022-12-22T14:45:33.339Z,96841.44
2022-12-22T14:47:59.679Z,96841.44
2022-12-22T14:50:25.962Z,96839.84
2022-12-22T14:52:52.243Z,96850.28
2022-12-22T14:55:18.630Z,96858.56
2022-12-22T14:57:44.949Z,96859.66
2022-12-22T15:00:11.308Z,96869.53
2022-12-22T15:02:40.043Z,96866.34
2022-12-22T15:05:06.798Z,96875.94
2022-12-22T15:08:04.736Z,96875.44
2022-12-22T15:10:19.462Z,96886.13
2022-12-22T15:12:45.703Z,96887.97
2022-12-22T15:15:13.666Z,96886.91
2022-12-22T15:17:39.919Z,96899.19
2022-12-22T15:20:06.276Z,96899.19
2022-12-22T15:22:32.518Z,96910.41
2022-12-22T15:24:58.883Z,96903.47
2022-12-22T15:27:25.146Z,96910.41
2022-12-22T15:29:51.373Z,96898.13
2022-12-22T15:32:17.609Z,96898.13
2022-12-22T15:34:43.842Z,96904.53
2022-12-22T15:37:10.175Z,96896.53
2022-12-22T15:39:36.402Z,96903.72
2022-12-22T15:42:05.675Z,96904.00
2022-12-22T15:44:38.286Z,96909.34
2022-12-22T15:47:08.115Z,96905.88
2022-12-22T15:49:34.422Z,96906.44
2022-12-22T15:52:00.724Z,96910.97
2022-12-22T15:54:27.078Z,96912.06
2022-12-22T15:56:53.453Z,96913.91
2022-12-22T15:59:19.862Z,96923.81
2022-12-22T16:01:46.177Z,96924.88
2022-12-22T16:04:13.400Z,96922.22
2022-12-22T16:06:39.681Z,96921.69
2022-12-22T16:09:05.907Z,96925.69
2022-12-22T16:11:33.306Z,96917.16
2022-12-22T16:13:59.639Z,96916.38
2022-12-22T16:16:26.190Z,96919.03
2022-12-22T16:18:52.487Z,96917.94
2022-12-22T16:21:18.772Z,96917.94
2022-12-22T16:23:45.068Z,96920.34
2022-12-22T16:26:11.391Z,96923.00
2022-12-22T16:28:37.618Z,96910.47
2022-12-22T16:31:03.923Z,96908.59
2022-12-22T16:33:30.247Z,96897.13
2022-12-22T16:35:56.613Z,96915.25
2022-12-22T16:38:22.946Z,96915.25
2022-12-22T16:40:49.269Z,96909.91
2022-12-22T16:45:59.324Z,96921.41
2022-12-22T16:48:25.626Z,96912.34
2022-12-22T16:50:51.905Z,96918.44
2022-12-22T16:53:18.190Z,96926.47
2022-12-22T16:55:44.452Z,96926.47
2022-12-22T16:58:13.608Z,96915.25
2022-12-22T17:00:40.502Z,96920.59
2022-12-22T17:03:06.897Z,96922.50
2022-12-22T17:05:36.267Z,96914.75
2022-12-22T17:08:05.077Z,96910.47
2022-12-22T17:10:31.329Z,96908.88
2022-12-22T17:12:57.621Z,96899.25
2022-12-22T17:15:23.907Z,96893.41
2022-12-22T17:17:50.427Z,96891.78
2022-12-22T17:20:16.723Z,96889.41
2022-12-22T17:22:42.991Z,96877.13
2022-12-22T17:25:09.235Z,96880.06
2022-12-22T17:27:35.493Z,96874.19
2022-12-22T17:30:01.793Z,96868.31
2022-12-22T17:32:28.067Z,96864.03
2022-12-22T17:34:54.344Z,96858.16
2022-12-22T17:37:20.658Z,96853.91
2022-12-22T17:39:46.941Z,96853.38
2022-12-22T17:42:13.236Z,96852.31
2022-12-22T17:44:39.523Z,96844.28
2022-12-22T17:47:05.967Z,96845.66
2022-12-22T17:49:33.278Z,96842.47
2022-12-22T17:51:59.562Z,96839.25
2022-12-22T17:54:25.861Z,96842.19
2022-12-22T17:56:52.151Z,96837.94
2022-12-22T17:59:18.491Z,96833.94
2022-12-22T18:01:44.945Z,96834.75
2022-12-22T18:04:11.489Z,96824.06
2022-12-22T18:06:37.854Z,96822.44
2022-12-22T18:09:04.155Z,96819.00
2022-12-22T18:11:30.517Z,96825.41
2022-12-22T18:13:56.766Z,96811.53
2022-12-22T18:16:23.210Z,96816.84
2022-12-22T18:18:49.590Z,96809.94
2022-12-22T18:21:15.938Z,96818.22
2022-12-22T18:23:49.517Z,96816.59
2022-12-22T18:26:16.789Z,96823.56
2022-12-22T18:28:43.018Z,96815.56
2022-12-22T18:31:09.307Z,96817.41
2022-12-22T18:33:35.785Z,96819.03
2022-12-22T18:36:01.974Z,96808.06
2022-12-22T18:38:28.224Z,96800.84
2022-12-22T18:40:54.510Z,96801.66
2022-12-22T18:43:20.812Z,96797.94
2022-12-22T18:45:47.123Z,96786.16
2022-12-22T18:48:13.404Z,96785.06
2022-12-22T18:50:39.804Z,96785.88
2022-12-22T18:53:06.124Z,96776.81
2022-12-22T18:55:32.372Z,96769.06
2022-12-22T18:57:58.638Z,96771.72
2022-12-22T19:00:24.887Z,96769.06
2022-12-22T19:02:51.376Z,96765.91
2022-12-22T19:05:17.770Z,96765.91
2022-12-22T19:07:44.086Z,96756.81
2022-12-22T19:10:10.383Z,96756.81
2022-12-22T19:12:36.623Z,96758.38
2022-12-22T19:15:02.875Z,96757.31
2022-12-22T19:17:29.288Z,96753.56
2022-12-22T19:19:55.556Z,96760.81
2022-12-22T19:22:21.868Z,96752.50
2022-12-22T19:24:48.144Z,96741.84
2022-12-22T19:27:14.400Z,96737.28
2022-12-22T19:29:40.646Z,96736.50
2022-12-22T19:32:07.013Z,96735.41
2022-12-22T19:34:33.473Z,96728.97
2022-12-22T19:36:59.733Z,96715.91
2022-12-22T19:39:26.017Z,96720.47
2022-12-22T19:41:52.345Z,96717.53
2022-12-22T19:44:18.621Z,96716.72
2022-12-22T19:46:44.953Z,96718.31
2022-12-22T19:49:11.243Z,96712.19
2022-12-22T19:51:39.625Z,96709.81
2022-12-22T19:54:05.973Z,96709.00
2022-12-22T19:56:32.284Z,96708.19
2022-12-22T19:58:58.560Z,96699.41
2022-12-22T20:01:25.007Z,96703.94
2022-12-22T20:03:51.414Z,96705.00
2022-12-22T20:06:17.954Z,96697.78
2022-12-22T20:08:44.300Z,96691.91
2022-12-22T20:11:10.639Z,96693.00
2022-12-22T20:13:36.970Z,96691.16
2022-12-22T20:16:03.706Z,96681.53
2022-12-22T20:18:30.032Z,96680.72
2022-12-22T20:20:57.631Z,96675.13
2022-12-22T20:23:24.746Z,96667.91
2022-12-22T20:25:51.356Z,96668.41
2022-12-22T20:28:17.721Z,96653.22
2022-12-22T20:30:51.455Z,96649.44
2022-12-22T20:33:18.255Z,96652.66
2022-12-22T20:35:44.511Z,96653.16
2022-12-22T20:38:15.402Z,96643.00
2022-12-22T20:40:41.733Z,96635.53
2022-12-22T20:43:08.134Z,96633.34
2022-12-22T20:45:50.484Z,96622.41
2022-12-22T20:48:21.998Z,96634.41
2022-12-22T20:50:48.357Z,96630.66
2022-12-22T20:53:17.453Z,96625.81
2022-12-22T20:55:43.756Z,96629.28
2022-12-22T20:58:10.019Z,96632.50
2022-12-22T21:00:36.332Z,96623.38
2022-12-22T21:03:02.780Z,96621.53
2022-12-22T21:05:29.314Z,96619.66
2022-12-22T21:07:55.664Z,96618.03
2022-12-22T21:10:25.134Z,96622.31
2022-12-22T21:12:51.426Z,96614.59
2022-12-22T21:15:17.661Z,96615.38
2022-12-22T21:17:46.226Z,96628.72
2022-12-22T21:20:12.793Z,96627.94
2022-12-22T21:22:39.067Z,96627.94
2022-12-22T21:25:05.383Z,96624.47
2022-12-22T21:27:31.728Z,96621.81
2022-12-22T21:29:58.158Z,96626.34
2022-12-22T21:32:24.509Z,96616.75
2022-12-22T21:34:50.786Z,96617.03
2022-12-22T21:37:17.251Z,96616.22
2022-12-22T21:39:45.665Z,96610.88
2022-12-22T21:42:11.958Z,96605.53
2022-12-22T21:44:38.181Z,96600.50
2022-12-22T21:47:04.527Z,96597.81
2022-12-22T21:49:30.778Z,96587.44
2022-12-22T21:51:57.080Z,96590.88
2022-12-22T21:54:23.341Z,96592.75
2022-12-22T21:56:49.652Z,96585.53
2022-12-22T21:59:15.943Z,96591.66
2022-12-22T22:01:42.315Z,96583.16
2022-12-22T22:04:09.223Z,96583.66
2022-12-22T22:06:46.104Z,96584.75
2022-12-22T22:09:12.830Z,96583.16
2022-12-22T22:11:39.133Z,96583.16
2022-12-22T22:14:05.378Z,96577.81
2022-12-22T22:16:31.676Z,96580.75
2022-12-22T22:18:57.968Z,96574.63
2022-12-22T22:21:24.241Z,96570.06
2022-12-22T22:23:50.525Z,96579.94
2022-12-22T22:26:16.875Z,96569.28
2022-12-22T22:28:43.183Z,96567.69
2022-12-22T22:31:09.541Z,96566.09
2022-12-22T22:33:35.864Z,96555.44
2022-12-22T22:36:05.909Z,96549.28
2022-12-22T22:38:32.900Z,96548.47
2022-12-22T22:40:59.271Z,96548.47
2022-12-22T22:43:25.546Z,96546.63
2022-12-22T22:45:51.835Z,96543.94
2022-12-22T22:48:18.134Z,96527.94
2022-12-22T22:50:44.508Z,96534.06
2022-12-22T22:53:10.790Z,96536.75
2022-12-22T22:55:37.133Z,96529.50
2022-12-22T22:58:03.369Z,96526.84
2022-12-22T23:00:29.643Z,96526.84
2022-12-22T23:02:55.996Z,96516.97
2022-12-22T23:05:23.125Z,96517.78
2022-12-22T23:07:49.537Z,96521.22
2022-12-22T23:10:15.831Z,96516.97
2022-12-22T23:12:42.081Z,96523.09
2022-12-22T23:15:08.334Z,96526.56
2022-12-22T23:17:34.643Z,96517.78
2022-12-22T23:20:00.952Z,96515.09
2022-12-22T23:22:27.241Z,96514.28
2022-12-22T23:24:53.476Z,96503.63
2022-12-22T23:27:19.888Z,96512.19
2022-12-22T23:29:46.342Z,96511.78
2022-12-22T23:32:12.703Z,96500.38
2022-12-22T23:34:39.134Z,96532.47
2022-12-22T23:37:05.421Z,96492.00
2022-12-22T23:39:31.816Z,96496.63
2022-12-22T23:42:01.009Z,96497.19
2022-12-22T23:44:27.281Z,96511.66
2022-12-22T23:46:53.609Z,96498.63
2022-12-22T23:49:19.897Z,96499.72
2022-12-22T23:51:46.165Z,96499.75
2022-12-22T23:54:12.498Z,96493.66
2022-12-22T23:56:38.892Z,96500.06
2022-12-22T23:59:05.255Z,96496.38
